sensor_id;sensor_type;location;lat;lon;timestamp;temperature;humidity
37678;DHT22;23517;50.390;8.616;2022-08-21T00:01:49;17.50;51.40
37678;DHT22;23517;50.390;8.616;2022-08-21T00:04:16;17.40;51.70
37678;DHT22;23517;50.390;8.616;2022-08-21T00:06:47;17.30;52.40
37678;DHT22;23517;50.390;8.616;2022-08-21T00:09:15;17.20;52.60
37678;DHT22;23517;50.390;8.616;2022-08-21T00:11:41;17.10;53.10
37678;DHT22;23517;50.390;8.616;2022-08-21T00:14:09;17.00;53.30
37678;DHT22;23517;50.390;8.616;2022-08-21T00:16:37;17.00;53.60
37678;DHT22;23517;50.390;8.616;2022-08-21T00:19:06;16.90;54.00
37678;DHT22;23517;50.390;8.616;2022-08-21T00:21:34;16.90;54.40
37678;DHT22;23517;50.390;8.616;2022-08-21T00:24:02;16.80;54.60
37678;DHT22;23517;50.390;8.616;2022-08-21T00:26:29;16.70;54.80
37678;DHT22;23517;50.390;8.616;2022-08-21T00:28:56;16.70;55.10
37678;DHT22;23517;50.390;8.616;2022-08-21T00:31:24;16.50;55.70
37678;DHT22;23517;50.390;8.616;2022-08-21T00:33:51;16.40;56.00
37678;DHT22;23517;50.390;8.616;2022-08-21T00:36:26;16.40;56.60
37678;DHT22;23517;50.390;8.616;2022-08-21T00:38:52;16.30;56.70
37678;DHT22;23517;50.390;8.616;2022-08-21T00:41:19;16.30;57.20
37678;DHT22;23517;50.390;8.616;2022-08-21T00:44:04;16.30;57.40
37678;DHT22;23517;50.390;8.616;2022-08-21T00:46:35;16.30;57.60
37678;DHT22;23517;50.390;8.616;2022-08-21T00:49:04;16.30;57.60
37678;DHT22;23517;50.390;8.616;2022-08-21T00:51:39;16.20;57.60
37678;DHT22;23517;50.390;8.616;2022-08-21T00:54:11;16.30;57.50
37678;DHT22;23517;50.390;8.616;2022-08-21T00:56:48;16.40;57.30
37678;DHT22;23517;50.390;8.616;2022-08-21T00:59:19;16.40;57.00
37678;DHT22;23517;50.390;8.616;2022-08-21T01:01:47;16.40;56.90
37678;DHT22;23517;50.390;8.616;2022-08-21T01:04:15;16.50;56.80
37678;DHT22;23517;50.390;8.616;2022-08-21T01:06:43;16.50;57.40
37678;DHT22;23517;50.390;8.616;2022-08-21T01:09:10;16.50;56.70
37678;DHT22;23517;50.390;8.616;2022-08-21T01:11:37;16.50;56.80
37678;DHT22;23517;50.390;8.616;2022-08-21T01:14:04;16.50;56.90
37678;DHT22;23517;50.390;8.616;2022-08-21T01:16:32;16.50;57.00
37678;DHT22;23517;50.390;8.616;2022-08-21T01:18:59;16.50;57.10
37678;DHT22;23517;50.390;8.616;2022-08-21T01:21:27;16.50;57.20
37678;DHT22;23517;50.390;8.616;2022-08-21T01:23:56;16.50;57.30
37678;DHT22;23517;50.390;8.616;2022-08-21T01:26:31;16.40;57.20
37678;DHT22;23517;50.390;8.616;2022-08-21T01:29:12;16.40;57.40
37678;DHT22;23517;50.390;8.616;2022-08-21T01:31:41;16.30;57.60
37678;DHT22;23517;50.390;8.616;2022-08-21T01:34:09;16.30;57.90
37678;DHT22;23517;50.390;8.616;2022-08-21T01:36:38;16.30;58.20
37678;DHT22;23517;50.390;8.616;2022-08-21T01:39:05;16.30;58.40
37678;DHT22;23517;50.390;8.616;2022-08-21T01:41:32;16.20;58.50
37678;DHT22;23517;50.390;8.616;2022-08-21T01:43:59;16.20;58.70
37678;DHT22;23517;50.390;8.616;2022-08-21T01:46:26;16.20;58.80
37678;DHT22;23517;50.390;8.616;2022-08-21T01:48:53;16.10;59.10
37678;DHT22;23517;50.390;8.616;2022-08-21T01:51:20;16.20;59.10
37678;DHT22;23517;50.390;8.616;2022-08-21T01:53:47;16.10;59.50
37678;DHT22;23517;50.390;8.616;2022-08-21T01:56:15;16.10;59.60
37678;DHT22;23517;50.390;8.616;2022-08-21T01:58:45;16.10;59.80
37678;DHT22;23517;50.390;8.616;2022-08-21T02:01:14;16.10;60.00
37678;DHT22;23517;50.390;8.616;2022-08-21T02:03:41;16.00;60.80
37678;DHT22;23517;50.390;8.616;2022-08-21T02:06:13;16.00;61.80
37678;DHT22;23517;50.390;8.616;2022-08-21T02:08:41;15.80;61.70
37678;DHT22;23517;50.390;8.616;2022-08-21T02:11:08;15.80;62.10
37678;DHT22;23517;50.390;8.616;2022-08-21T02:13:35;15.80;62.30
37678;DHT22;23517;50.390;8.616;2022-08-21T02:16:02;15.90;61.80
37678;DHT22;23517;50.390;8.616;2022-08-21T02:18:30;15.80;61.80
37678;DHT22;23517;50.390;8.616;2022-08-21T02:20:57;15.80;61.80
37678;DHT22;23517;50.390;8.616;2022-08-21T02:23:24;15.80;62.10
37678;DHT22;23517;50.390;8.616;2022-08-21T02:25:57;15.80;61.60
37678;DHT22;23517;50.390;8.616;2022-08-21T02:28:25;15.80;61.80
37678;DHT22;23517;50.390;8.616;2022-08-21T02:30:54;15.80;62.20
37678;DHT22;23517;50.390;8.616;2022-08-21T02:33:22;15.70;62.50
37678;DHT22;23517;50.390;8.616;2022-08-21T02:35:50;15.70;62.50
37678;DHT22;23517;50.390;8.616;2022-08-21T02:38:22;15.80;62.00
37678;DHT22;23517;50.390;8.616;2022-08-21T02:40:53;15.80;61.60
37678;DHT22;23517;50.390;8.616;2022-08-21T02:43:22;15.80;61.20
37678;DHT22;23517;50.390;8.616;2022-08-21T02:45:51;15.70;61.20
37678;DHT22;23517;50.390;8.616;2022-08-21T02:48:22;15.70;61.40
37678;DHT22;23517;50.390;8.616;2022-08-21T02:51:03;15.70;61.30
37678;DHT22;23517;50.390;8.616;2022-08-21T02:53:33;15.70;61.20
37678;DHT22;23517;50.390;8.616;2022-08-21T02:56:02;15.70;61.50
37678;DHT22;23517;50.390;8.616;2022-08-21T02:58:37;15.70;61.30
37678;DHT22;23517;50.390;8.616;2022-08-21T03:01:10;15.70;61.40
37678;DHT22;23517;50.390;8.616;2022-08-21T03:03:39;15.70;61.10
37678;DHT22;23517;50.390;8.616;2022-08-21T03:06:09;15.60;61.20
37678;DHT22;23517;50.390;8.616;2022-08-21T03:08:37;15.50;61.40
37678;DHT22;23517;50.390;8.616;2022-08-21T03:11:05;15.50;62.10
37678;DHT22;23517;50.390;8.616;2022-08-21T03:13:33;15.50;62.10
37678;DHT22;23517;50.390;8.616;2022-08-21T03:16:00;15.50;62.00
37678;DHT22;23517;50.390;8.616;2022-08-21T03:18:29;15.40;62.10
37678;DHT22;23517;50.390;8.616;2022-08-21T03:20:56;15.40;63.00
37678;DHT22;23517;50.390;8.616;2022-08-21T03:23:23;15.30;62.60
37678;DHT22;23517;50.390;8.616;2022-08-21T03:25:50;15.20;63.40
37678;DHT22;23517;50.390;8.616;2022-08-21T03:28:20;15.20;63.50
37678;DHT22;23517;50.390;8.616;2022-08-21T03:30:50;15.20;63.20
37678;DHT22;23517;50.390;8.616;2022-08-21T03:33:18;15.20;63.00
37678;DHT22;23517;50.390;8.616;2022-08-21T03:35:59;15.10;63.50
37678;DHT22;23517;50.390;8.616;2022-08-21T03:38:30;15.10;63.40
37678;DHT22;23517;50.390;8.616;2022-08-21T03:40:59;15.10;63.70
37678;DHT22;23517;50.390;8.616;2022-08-21T03:43:27;15.20;63.10
37678;DHT22;23517;50.390;8.616;2022-08-21T03:45:56;15.20;62.80
37678;DHT22;23517;50.390;8.616;2022-08-21T03:48:23;15.20;62.80
37678;DHT22;23517;50.390;8.616;2022-08-21T03:50:52;15.30;63.00
37678;DHT22;23517;50.390;8.616;2022-08-21T03:53:19;15.20;62.80
37678;DHT22;23517;50.390;8.616;2022-08-21T03:55:47;15.10;63.00
37678;DHT22;23517;50.390;8.616;2022-08-21T03:58:17;15.00;63.10
37678;DHT22;23517;50.390;8.616;2022-08-21T04:00:48;14.80;63.60
37678;DHT22;23517;50.390;8.616;2022-08-21T04:03:17;14.70;64.00
37678;DHT22;23517;50.390;8.616;2022-08-21T04:05:45;14.70;64.10
37678;DHT22;23517;50.390;8.616;2022-08-21T04:08:14;14.60;64.20
37678;DHT22;23517;50.390;8.616;2022-08-21T04:10:42;14.60;64.60
37678;DHT22;23517;50.390;8.616;2022-08-21T04:13:10;14.50;64.80
37678;DHT22;23517;50.390;8.616;2022-08-21T04:15:37;14.50;65.10
37678;DHT22;23517;50.390;8.616;2022-08-21T04:18:05;14.40;65.40
37678;DHT22;23517;50.390;8.616;2022-08-21T04:20:32;14.30;65.90
37678;DHT22;23517;50.390;8.616;2022-08-21T04:22:59;14.30;65.90
37678;DHT22;23517;50.390;8.616;2022-08-21T04:25:27;14.30;65.80
37678;DHT22;23517;50.390;8.616;2022-08-21T04:27:54;14.30;66.00
37678;DHT22;23517;50.390;8.616;2022-08-21T04:30:21;14.30;65.60
37678;DHT22;23517;50.390;8.616;2022-08-21T04:32:57;14.20;65.80
37678;DHT22;23517;50.390;8.616;2022-08-21T04:35:26;14.10;65.90
37678;DHT22;23517;50.390;8.616;2022-08-21T04:37:54;14.20;65.80
37678;DHT22;23517;50.390;8.616;2022-08-21T04:40:23;14.20;65.80
37678;DHT22;23517;50.390;8.616;2022-08-21T04:42:56;14.20;66.00
37678;DHT22;23517;50.390;8.616;2022-08-21T04:45:28;14.20;65.60
37678;DHT22;23517;50.390;8.616;2022-08-21T04:47:59;14.20;65.50
37678;DHT22;23517;50.390;8.616;2022-08-21T04:50:36;14.20;65.80
37678;DHT22;23517;50.390;8.616;2022-08-21T04:53:35;14.20;65.80
37678;DHT22;23517;50.390;8.616;2022-08-21T04:56:19;14.20;65.90
37678;DHT22;23517;50.390;8.616;2022-08-21T04:58:49;14.20;66.30
37678;DHT22;23517;50.390;8.616;2022-08-21T05:01:20;14.20;66.30
37678;DHT22;23517;50.390;8.616;2022-08-21T05:03:51;14.20;66.30
37678;DHT22;23517;50.390;8.616;2022-08-21T05:06:20;14.30;66.30
37678;DHT22;23517;50.390;8.616;2022-08-21T05:08:49;14.30;66.30
37678;DHT22;23517;50.390;8.616;2022-08-21T05:11:28;14.40;66.00
37678;DHT22;23517;50.390;8.616;2022-08-21T05:13:56;14.40;65.90
37678;DHT22;23517;50.390;8.616;2022-08-21T05:16:23;14.40;66.40
37678;DHT22;23517;50.390;8.616;2022-08-21T05:19:03;14.50;66.20
37678;DHT22;23517;50.390;8.616;2022-08-21T05:21:35;14.50;66.10
37678;DHT22;23517;50.390;8.616;2022-08-21T05:24:04;14.60;65.50
37678;DHT22;23517;50.390;8.616;2022-08-21T05:26:31;14.70;65.30
37678;DHT22;23517;50.390;8.616;2022-08-21T05:29:09;14.70;65.50
37678;DHT22;23517;50.390;8.616;2022-08-21T05:31:38;14.70;65.80
37678;DHT22;23517;50.390;8.616;2022-08-21T05:34:05;14.70;65.70
37678;DHT22;23517;50.390;8.616;2022-08-21T05:36:32;14.80;65.50
37678;DHT22;23517;50.390;8.616;2022-08-21T05:38:59;14.80;65.40
37678;DHT22;23517;50.390;8.616;2022-08-21T05:41:26;15.00;64.80
37678;DHT22;23517;50.390;8.616;2022-08-21T05:43:52;15.10;64.50
37678;DHT22;23517;50.390;8.616;2022-08-21T05:46:19;15.30;63.90
37678;DHT22;23517;50.390;8.616;2022-08-21T05:48:46;15.40;63.20
37678;DHT22;23517;50.390;8.616;2022-08-21T05:51:14;15.60;62.70
37678;DHT22;23517;50.390;8.616;2022-08-21T05:53:42;15.70;62.10
37678;DHT22;23517;50.390;8.616;2022-08-21T05:56:10;15.90;61.60
37678;DHT22;23517;50.390;8.616;2022-08-21T05:58:37;16.00;61.40
37678;DHT22;23517;50.390;8.616;2022-08-21T06:01:04;16.20;60.90
37678;DHT22;23517;50.390;8.616;2022-08-21T06:03:35;16.40;59.60
37678;DHT22;23517;50.390;8.616;2022-08-21T06:06:03;16.60;59.40
37678;DHT22;23517;50.390;8.616;2022-08-21T06:08:30;16.90;58.60
37678;DHT22;23517;50.390;8.616;2022-08-21T06:10:59;17.50;55.60
37678;DHT22;23517;50.390;8.616;2022-08-21T06:13:27;18.90;52.20
37678;DHT22;23517;50.390;8.616;2022-08-21T06:16:12;20.80;43.60
37678;DHT22;23517;50.390;8.616;2022-08-21T06:18:42;22.90;37.00
37678;DHT22;23517;50.390;8.616;2022-08-21T06:21:10;24.40;32.30
37678;DHT22;23517;50.390;8.616;2022-08-21T06:23:38;24.70;31.00
37678;DHT22;23517;50.390;8.616;2022-08-21T06:26:06;25.30;29.50
37678;DHT22;23517;50.390;8.616;2022-08-21T06:28:35;25.90;27.50
37678;DHT22;23517;50.390;8.616;2022-08-21T06:31:18;27.00;26.10
37678;DHT22;23517;50.390;8.616;2022-08-21T06:33:47;27.80;24.30
37678;DHT22;23517;50.390;8.616;2022-08-21T06:36:14;28.50;22.40
37678;DHT22;23517;50.390;8.616;2022-08-21T06:38:41;28.20;22.90
37678;DHT22;23517;50.390;8.616;2022-08-21T06:41:17;29.30;22.10
37678;DHT22;23517;50.390;8.616;2022-08-21T06:43:50;30.00;20.70
37678;DHT22;23517;50.390;8.616;2022-08-21T06:46:16;29.30;20.60
37678;DHT22;23517;50.390;8.616;2022-08-21T06:48:43;29.60;20.40
37678;DHT22;23517;50.390;8.616;2022-08-21T06:51:10;30.60;19.70
37678;DHT22;23517;50.390;8.616;2022-08-21T06:53:37;30.90;19.20
37678;DHT22;23517;50.390;8.616;2022-08-21T06:56:04;31.90;18.90
37678;DHT22;23517;50.390;8.616;2022-08-21T06:58:31;31.80;18.80
37678;DHT22;23517;50.390;8.616;2022-08-21T07:00:58;32.20;18.20
37678;DHT22;23517;50.390;8.616;2022-08-21T07:03:30;32.20;18.30
37678;DHT22;23517;50.390;8.616;2022-08-21T07:05:59;32.30;18.10
37678;DHT22;23517;50.390;8.616;2022-08-21T07:08:27;33.00;17.70
37678;DHT22;23517;50.390;8.616;2022-08-21T07:10:56;33.70;16.50
37678;DHT22;23517;50.390;8.616;2022-08-21T07:13:26;33.80;15.90
37678;DHT22;23517;50.390;8.616;2022-08-21T07:15:53;33.90;16.10
37678;DHT22;23517;50.390;8.616;2022-08-21T07:18:20;34.20;16.00
37678;DHT22;23517;50.390;8.616;2022-08-21T07:20:47;33.80;16.40
37678;DHT22;23517;50.390;8.616;2022-08-21T07:23:31;34.60;15.30
37678;DHT22;23517;50.390;8.616;2022-08-21T07:26:00;32.80;16.30
37678;DHT22;23517;50.390;8.616;2022-08-21T07:28:28;33.10;17.20
37678;DHT22;23517;50.390;8.616;2022-08-21T07:30:57;33.80;16.20
37678;DHT22;23517;50.390;8.616;2022-08-21T07:33:26;34.30;15.60
37678;DHT22;23517;50.390;8.616;2022-08-21T07:38:23;34.90;14.70
37678;DHT22;23517;50.390;8.616;2022-08-21T07:40:51;35.60;14.30
37678;DHT22;23517;50.390;8.616;2022-08-21T07:43:19;34.30;15.60
37678;DHT22;23517;50.390;8.616;2022-08-21T07:45:48;35.10;14.90
37678;DHT22;23517;50.390;8.616;2022-08-21T07:48:16;34.70;14.90
37678;DHT22;23517;50.390;8.616;2022-08-21T07:50:43;35.00;15.00
37678;DHT22;23517;50.390;8.616;2022-08-21T07:53:10;35.80;14.10
37678;DHT22;23517;50.390;8.616;2022-08-21T07:55:37;35.70;14.20
37678;DHT22;23517;50.390;8.616;2022-08-21T07:58:03;34.70;15.10
37678;DHT22;23517;50.390;8.616;2022-08-21T08:00:30;34.50;15.30
37678;DHT22;23517;50.390;8.616;2022-08-21T08:02:57;35.30;14.70
37678;DHT22;23517;50.390;8.616;2022-08-21T08:05:28;35.90;14.30
37678;DHT22;23517;50.390;8.616;2022-08-21T08:07:56;34.50;15.50
37678;DHT22;23517;50.390;8.616;2022-08-21T08:10:23;35.50;14.20
37678;DHT22;23517;50.390;8.616;2022-08-21T08:12:51;35.70;13.90
37678;DHT22;23517;50.390;8.616;2022-08-21T08:15:21;35.60;14.00
37678;DHT22;23517;50.390;8.616;2022-08-21T08:17:51;33.80;15.20
37678;DHT22;23517;50.390;8.616;2022-08-21T08:20:18;32.80;15.50
37678;DHT22;23517;50.390;8.616;2022-08-21T08:22:46;31.20;16.70
37678;DHT22;23517;50.390;8.616;2022-08-21T08:25:16;29.70;18.40
37678;DHT22;23517;50.390;8.616;2022-08-21T08:27:43;28.80;19.60
37678;DHT22;23517;50.390;8.616;2022-08-21T08:30:13;29.30;20.40
37678;DHT22;23517;50.390;8.616;2022-08-21T08:32:41;30.20;18.80
37678;DHT22;23517;50.390;8.616;2022-08-21T08:37:38;28.70;20.10
37678;DHT22;23517;50.390;8.616;2022-08-21T08:42:49;31.30;18.30
37678;DHT22;23517;50.390;8.616;2022-08-21T08:45:19;33.80;15.60
37678;DHT22;23517;50.390;8.616;2022-08-21T08:47:53;34.30;12.90
37678;DHT22;23517;50.390;8.616;2022-08-21T08:50:39;32.20;14.70
37678;DHT22;23517;50.390;8.616;2022-08-21T08:53:14;31.30;15.30
37678;DHT22;23517;50.390;8.616;2022-08-21T08:55:44;30.10;16.90
37678;DHT22;23517;50.390;8.616;2022-08-21T08:58:21;29.20;17.70
37678;DHT22;23517;50.390;8.616;2022-08-21T09:00:52;28.90;18.10
37678;DHT22;23517;50.390;8.616;2022-08-21T09:03:21;28.10;19.00
37678;DHT22;23517;50.390;8.616;2022-08-21T09:06:04;27.20;19.70
37678;DHT22;23517;50.390;8.616;2022-08-21T09:09:05;26.40;20.50
37678;DHT22;23517;50.390;8.616;2022-08-21T09:11:52;27.10;19.90
37678;DHT22;23517;50.390;8.616;2022-08-21T09:18:23;33.10;14.00
37678;DHT22;23517;50.390;8.616;2022-08-21T09:21:27;33.90;13.00
37678;DHT22;23517;50.390;8.616;2022-08-21T09:29:37;32.30;14.40
37678;DHT22;23517;50.390;8.616;2022-08-21T09:32:46;32.00;14.70
37678;DHT22;23517;50.390;8.616;2022-08-21T09:35:13;31.10;16.00
37678;DHT22;23517;50.390;8.616;2022-08-21T09:37:57;30.60;16.30
37678;DHT22;23517;50.390;8.616;2022-08-21T09:40:36;29.80;17.20
37678;DHT22;23517;50.390;8.616;2022-08-21T09:45:39;29.60;17.40
37678;DHT22;23517;50.390;8.616;2022-08-21T09:48:14;30.60;16.40
37678;DHT22;23517;50.390;8.616;2022-08-21T09:50:45;33.20;14.60
37678;DHT22;23517;50.390;8.616;2022-08-21T09:53:28;35.20;12.40
37678;DHT22;23517;50.390;8.616;2022-08-21T09:56:14;36.80;9.60
37678;DHT22;23517;50.390;8.616;2022-08-21T09:59:13;36.60;9.80
37678;DHT22;23517;50.390;8.616;2022-08-21T10:01:53;37.80;10.20
37678;DHT22;23517;50.390;8.616;2022-08-21T10:06:50;37.50;9.60
37678;DHT22;23517;50.390;8.616;2022-08-21T10:09:19;36.50;10.20
37678;DHT22;23517;50.390;8.616;2022-08-21T10:12:20;34.60;11.60
37678;DHT22;23517;50.390;8.616;2022-08-21T10:15:08;32.50;13.60
37678;DHT22;23517;50.390;8.616;2022-08-21T10:18:10;30.60;15.60
37678;DHT22;23517;50.390;8.616;2022-08-21T10:21:11;29.70;16.40
37678;DHT22;23517;50.390;8.616;2022-08-21T10:27:06;28.20;17.60
37678;DHT22;23517;50.390;8.616;2022-08-21T10:33:31;26.90;18.60
37678;DHT22;23517;50.390;8.616;2022-08-21T10:47:57;26.70;19.30
37678;DHT22;23517;50.390;8.616;2022-08-21T10:50:39;26.60;18.90
37678;DHT22;23517;50.390;8.616;2022-08-21T10:53:50;26.60;18.80
37678;DHT22;23517;50.390;8.616;2022-08-21T10:56:29;26.30;18.50
37678;DHT22;23517;50.390;8.616;2022-08-21T11:05:04;26.60;18.60
37678;DHT22;23517;50.390;8.616;2022-08-21T11:08:02;26.40;18.00
37678;DHT22;23517;50.390;8.616;2022-08-21T11:10:39;26.40;18.60
37678;DHT22;23517;50.390;8.616;2022-08-21T11:16:21;26.40;18.10
37678;DHT22;23517;50.390;8.616;2022-08-21T11:19:28;26.40;17.60
37678;DHT22;23517;50.390;8.616;2022-08-21T11:25:23;26.50;17.20
37678;DHT22;23517;50.390;8.616;2022-08-21T11:28:13;26.40;17.30
37678;DHT22;23517;50.390;8.616;2022-08-21T11:30:51;26.50;16.60
37678;DHT22;23517;50.390;8.616;2022-08-21T11:36:26;26.50;16.30
37678;DHT22;23517;50.390;8.616;2022-08-21T11:39:04;26.40;16.10
37678;DHT22;23517;50.390;8.616;2022-08-21T11:41:48;26.40;16.50
37678;DHT22;23517;50.390;8.616;2022-08-21T11:44:48;26.50;16.30
37678;DHT22;23517;50.390;8.616;2022-08-21T11:47:49;26.50;16.00
37678;DHT22;23517;50.390;8.616;2022-08-21T11:50:36;26.60;16.10
37678;DHT22;23517;50.390;8.616;2022-08-21T11:53:19;26.70;16.10
37678;DHT22;23517;50.390;8.616;2022-08-21T11:56:17;26.70;15.90
37678;DHT22;23517;50.390;8.616;2022-08-21T11:58:53;26.80;15.90
37678;DHT22;23517;50.390;8.616;2022-08-21T12:01:31;26.80;15.90
37678;DHT22;23517;50.390;8.616;2022-08-21T12:04:04;26.80;15.50
37678;DHT22;23517;50.390;8.616;2022-08-21T12:06:40;27.00;15.10
37678;DHT22;23517;50.390;8.616;2022-08-21T12:09:29;26.90;15.10
37678;DHT22;23517;50.390;8.616;2022-08-21T12:12:10;26.90;15.00
37678;DHT22;23517;50.390;8.616;2022-08-21T12:14:41;26.80;14.80
37678;DHT22;23517;50.390;8.616;2022-08-21T12:17:26;26.60;15.20
37678;DHT22;23517;50.390;8.616;2022-08-21T12:20:36;26.60;15.40
37678;DHT22;23517;50.390;8.616;2022-08-21T12:23:18;26.40;15.80
37678;DHT22;23517;50.390;8.616;2022-08-21T12:29:02;26.70;16.20
37678;DHT22;23517;50.390;8.616;2022-08-21T12:31:46;26.80;16.10
37678;DHT22;23517;50.390;8.616;2022-08-21T12:34:15;26.90;16.00
37678;DHT22;23517;50.390;8.616;2022-08-21T12:36:47;27.00;15.30
37678;DHT22;23517;50.390;8.616;2022-08-21T12:39:25;26.90;15.20
37678;DHT22;23517;50.390;8.616;2022-08-21T12:43:00;27.10;15.60
37678;DHT22;23517;50.390;8.616;2022-08-21T12:45:16;27.10;15.70
37678;DHT22;23517;50.390;8.616;2022-08-21T12:48:04;27.20;15.50
37678;DHT22;23517;50.390;8.616;2022-08-21T12:50:54;27.00;16.00
37678;DHT22;23517;50.390;8.616;2022-08-21T12:53:35;27.00;16.50
37678;DHT22;23517;50.390;8.616;2022-08-21T12:56:13;27.10;16.50
37678;DHT22;23517;50.390;8.616;2022-08-21T12:58:46;27.10;16.20
37678;DHT22;23517;50.390;8.616;2022-08-21T13:01:25;27.00;16.50
37678;DHT22;23517;50.390;8.616;2022-08-21T13:03:58;27.10;16.50
37678;DHT22;23517;50.390;8.616;2022-08-21T13:06:37;27.20;16.00
37678;DHT22;23517;50.390;8.616;2022-08-21T13:09:10;27.30;15.90
37678;DHT22;23517;50.390;8.616;2022-08-21T13:11:40;27.40;15.90
37678;DHT22;23517;50.390;8.616;2022-08-21T13:14:20;27.10;15.70
37678;DHT22;23517;50.390;8.616;2022-08-21T13:16:57;27.10;15.80
37678;DHT22;23517;50.390;8.616;2022-08-21T13:19:25;27.20;15.30
37678;DHT22;23517;50.390;8.616;2022-08-21T13:21:53;27.30;14.90
37678;DHT22;23517;50.390;8.616;2022-08-21T13:24:25;27.40;14.80
37678;DHT22;23517;50.390;8.616;2022-08-21T13:30:14;27.50;14.20
37678;DHT22;23517;50.390;8.616;2022-08-21T13:32:49;27.50;15.00
37678;DHT22;23517;50.390;8.616;2022-08-21T13:35:25;27.50;15.10
37678;DHT22;23517;50.390;8.616;2022-08-21T13:37:55;27.40;15.40
37678;DHT22;23517;50.390;8.616;2022-08-21T13:40:30;27.50;15.60
37678;DHT22;23517;50.390;8.616;2022-08-21T13:42:59;27.60;15.20
37678;DHT22;23517;50.390;8.616;2022-08-21T13:45:32;27.60;15.20
37678;DHT22;23517;50.390;8.616;2022-08-21T13:48:03;27.60;15.10
37678;DHT22;23517;50.390;8.616;2022-08-21T13:50:35;27.70;14.40
37678;DHT22;23517;50.390;8.616;2022-08-21T13:53:06;27.60;14.50
37678;DHT22;23517;50.390;8.616;2022-08-21T13:55:38;27.40;14.60
37678;DHT22;23517;50.390;8.616;2022-08-21T13:58:09;27.40;14.80
37678;DHT22;23517;50.390;8.616;2022-08-21T14:00:56;27.50;14.40
37678;DHT22;23517;50.390;8.616;2022-08-21T14:03:42;27.60;14.30
37678;DHT22;23517;50.390;8.616;2022-08-21T14:06:19;27.50;13.80
37678;DHT22;23517;50.390;8.616;2022-08-21T14:08:56;27.40;14.20
37678;DHT22;23517;50.390;8.616;2022-08-21T14:11:26;27.60;13.80
37678;DHT22;23517;50.390;8.616;2022-08-21T14:14:04;27.80;13.50
37678;DHT22;23517;50.390;8.616;2022-08-21T14:16:58;28.00;13.00
37678;DHT22;23517;50.390;8.616;2022-08-21T14:19:46;28.10;13.10
37678;DHT22;23517;50.390;8.616;2022-08-21T14:28:11;28.20;13.00
37678;DHT22;23517;50.390;8.616;2022-08-21T14:30:56;28.30;13.40
37678;DHT22;23517;50.390;8.616;2022-08-21T14:33:28;28.10;13.30
37678;DHT22;23517;50.390;8.616;2022-08-21T14:35:58;27.90;13.60
37678;DHT22;23517;50.390;8.616;2022-08-21T14:38:26;27.80;12.70
37678;DHT22;23517;50.390;8.616;2022-08-21T14:41:00;27.70;13.00
37678;DHT22;23517;50.390;8.616;2022-08-21T14:43:31;27.90;13.00
37678;DHT22;23517;50.390;8.616;2022-08-21T14:45:58;28.10;13.20
37678;DHT22;23517;50.390;8.616;2022-08-21T14:48:26;28.00;13.30
37678;DHT22;23517;50.390;8.616;2022-08-21T14:50:53;27.80;13.30
37678;DHT22;23517;50.390;8.616;2022-08-21T14:53:25;27.90;13.40
37678;DHT22;23517;50.390;8.616;2022-08-21T14:55:53;27.90;13.90
37678;DHT22;23517;50.390;8.616;2022-08-21T14:58:37;28.10;13.80
37678;DHT22;23517;50.390;8.616;2022-08-21T15:01:09;28.10;14.10
37678;DHT22;23517;50.390;8.616;2022-08-21T15:03:37;28.20;14.30
37678;DHT22;23517;50.390;8.616;2022-08-21T15:06:05;28.10;14.20
37678;DHT22;23517;50.390;8.616;2022-08-21T15:08:32;28.20;14.30
37678;DHT22;23517;50.390;8.616;2022-08-21T15:11:01;28.00;14.00
37678;DHT22;23517;50.390;8.616;2022-08-21T15:13:40;28.10;14.10
37678;DHT22;23517;50.390;8.616;2022-08-21T15:16:09;28.20;13.80
37678;DHT22;23517;50.390;8.616;2022-08-21T15:18:37;28.20;14.00
37678;DHT22;23517;50.390;8.616;2022-08-21T15:21:04;28.10;14.50
37678;DHT22;23517;50.390;8.616;2022-08-21T15:23:31;28.20;14.20
37678;DHT22;23517;50.390;8.616;2022-08-21T15:25:58;28.10;13.60
37678;DHT22;23517;50.390;8.616;2022-08-21T15:28:26;27.90;13.50
37678;DHT22;23517;50.390;8.616;2022-08-21T15:30:57;27.90;13.40
37678;DHT22;23517;50.390;8.616;2022-08-21T15:33:25;28.00;13.80
37678;DHT22;23517;50.390;8.616;2022-08-21T15:35:52;28.10;13.80
37678;DHT22;23517;50.390;8.616;2022-08-21T15:38:19;28.10;13.50
37678;DHT22;23517;50.390;8.616;2022-08-21T15:40:45;28.20;14.40
37678;DHT22;23517;50.390;8.616;2022-08-21T15:43:27;28.20;13.70
37678;DHT22;23517;50.390;8.616;2022-08-21T15:45:58;28.20;13.40
37678;DHT22;23517;50.390;8.616;2022-08-21T15:48:27;28.20;13.60
37678;DHT22;23517;50.390;8.616;2022-08-21T15:50:54;28.20;13.60
37678;DHT22;23517;50.390;8.616;2022-08-21T15:53:21;28.10;13.90
37678;DHT22;23517;50.390;8.616;2022-08-21T15:55:48;28.20;13.80
37678;DHT22;23517;50.390;8.616;2022-08-21T15:58:16;28.20;13.40
37678;DHT22;23517;50.390;8.616;2022-08-21T16:00:44;28.40;12.80
37678;DHT22;23517;50.390;8.616;2022-08-21T16:03:15;28.50;12.80
37678;DHT22;23517;50.390;8.616;2022-08-21T16:05:46;28.50;12.70
37678;DHT22;23517;50.390;8.616;2022-08-21T16:08:15;28.40;13.30
37678;DHT22;23517;50.390;8.616;2022-08-21T16:10:43;28.30;13.20
37678;DHT22;23517;50.390;8.616;2022-08-21T16:13:39;27.90;13.00
37678;DHT22;23517;50.390;8.616;2022-08-21T16:16:18;27.90;13.60
37678;DHT22;23517;50.390;8.616;2022-08-21T16:18:48;27.80;14.00
37678;DHT22;23517;50.390;8.616;2022-08-21T16:21:18;27.60;14.40
37678;DHT22;23517;50.390;8.616;2022-08-21T16:23:45;27.40;15.00
37678;DHT22;23517;50.390;8.616;2022-08-21T16:26:13;27.10;15.30
37678;DHT22;23517;50.390;8.616;2022-08-21T16:28:45;26.90;15.60
37678;DHT22;23517;50.390;8.616;2022-08-21T16:31:13;26.70;15.90
37678;DHT22;23517;50.390;8.616;2022-08-21T16:33:48;26.60;16.00
37678;DHT22;23517;50.390;8.616;2022-08-21T16:36:22;26.40;16.20
37678;DHT22;23517;50.390;8.616;2022-08-21T16:38:52;26.20;16.70
37678;DHT22;23517;50.390;8.616;2022-08-21T16:41:21;26.20;16.90
37678;DHT22;23517;50.390;8.616;2022-08-21T16:43:50;26.10;17.20
37678;DHT22;23517;50.390;8.616;2022-08-21T16:46:18;26.10;17.40
37678;DHT22;23517;50.390;8.616;2022-08-21T16:48:46;26.00;17.60
37678;DHT22;23517;50.390;8.616;2022-08-21T16:51:14;25.90;17.30
37678;DHT22;23517;50.390;8.616;2022-08-21T16:53:42;25.80;17.40
37678;DHT22;23517;50.390;8.616;2022-08-21T16:56:11;25.80;17.80
37678;DHT22;23517;50.390;8.616;2022-08-21T16:58:41;25.70;17.90
37678;DHT22;23517;50.390;8.616;2022-08-21T17:01:11;25.50;18.40
37678;DHT22;23517;50.390;8.616;2022-08-21T17:03:43;25.40;18.80
37678;DHT22;23517;50.390;8.616;2022-08-21T17:06:13;25.30;19.50
37678;DHT22;23517;50.390;8.616;2022-08-21T17:08:41;25.20;20.00
37678;DHT22;23517;50.390;8.616;2022-08-21T17:11:37;25.00;20.50
37678;DHT22;23517;50.390;8.616;2022-08-21T17:14:07;24.90;20.90